sensor_id;sensor_type;location;lat;lon;timestamp;temperature;humidity
40670;DHT22;26355;45.528;9.234;2023-03-01T00:00:45;9.20;99.90
40670;DHT22;26355;45.528;9.234;2023-03-01T00:03:12;8.90;99.90
40670;DHT22;26355;45.528;9.234;2023-03-01T00:05:46;8.60;99.90
40670;DHT22;26355;45.528;9.234;2023-03-01T00:08:12;8.70;99.90
40670;DHT22;26355;45.528;9.234;2023-03-01T00:10:37;8.50;99.90
40670;DHT22;26355;45.528;9.234;2023-03-01T00:13:03;8.80;99.90
40670;DHT22;26355;45.528;9.234;2023-03-01T00:15:31;8.60;99.90
40670;DHT22;26355;45.528;9.234;2023-03-01T00:17:56;8.80;99.90
40670;DHT22;26355;45.528;9.234;2023-03-01T00:20:22;8.70;99.90
40670;DHT22;26355;45.528;9.234;2023-03-01T00:22:48;8.70;99.90
40670;DHT22;26355;45.528;9.234;2023-03-01T00:25:13;8.70;99.90
40670;DHT22;26355;45.528;9.234;2023-03-01T00:27:39;11.00;99.90
40670;DHT22;26355;45.528;9.234;2023-03-01T00:30:05;8.80;99.90
40670;DHT22;26355;45.528;9.234;2023-03-01T00:32:31;8.80;99.90
40670;DHT22;26355;45.528;9.234;2023-03-01T00:34:56;10.40;99.90
40670;DHT22;26355;45.528;9.234;2023-03-01T00:37:22;9.20;99.90
40670;DHT22;26355;45.528;9.234;2023-03-01T00:39:48;9.30;99.90
40670;DHT22;26355;45.528;9.234;2023-03-01T00:42:14;8.20;99.90
40670;DHT22;26355;45.528;9.234;2023-03-01T00:44:40;7.90;99.90
40670;DHT22;26355;45.528;9.234;2023-03-01T00:47:05;8.60;99.90
40670;DHT22;26355;45.528;9.234;2023-03-01T00:49:31;8.60;99.90
40670;DHT22;26355;45.528;9.234;2023-03-01T00:51:56;8.50;99.90
40670;DHT22;26355;45.528;9.234;2023-03-01T00:54:22;8.70;99.90
40670;DHT22;26355;45.528;9.234;2023-03-01T00:56:48;8.50;99.90
40670;DHT22;26355;45.528;9.234;2023-03-01T00:59:13;8.80;99.90
40670;DHT22;26355;45.528;9.234;2023-03-01T01:01:39;8.50;99.90
40670;DHT22;26355;45.528;9.234;2023-03-01T01:04:10;8.40;99.90
40670;DHT22;26355;45.528;9.234;2023-03-01T01:06:39;7.90;99.90
40670;DHT22;26355;45.528;9.234;2023-03-01T01:09:08;8.40;99.90
40670;DHT22;26355;45.528;9.234;2023-03-01T01:11:43;9.40;99.90
40670;DHT22;26355;45.528;9.234;2023-03-01T01:14:09;9.50;99.90
40670;DHT22;26355;45.528;9.234;2023-03-01T01:16:35;8.90;99.90
40670;DHT22;26355;45.528;9.234;2023-03-01T01:19:01;8.70;99.90
40670;DHT22;26355;45.528;9.234;2023-03-01T01:21:27;8.40;99.90
40670;DHT22;26355;45.528;9.234;2023-03-01T01:23:52;8.60;99.90
40670;DHT22;26355;45.528;9.234;2023-03-01T01:26:22;9.60;99.90
40670;DHT22;26355;45.528;9.234;2023-03-01T01:28:48;8.30;99.90
40670;DHT22;26355;45.528;9.234;2023-03-01T01:31:14;8.60;99.90
40670;DHT22;26355;45.528;9.234;2023-03-01T01:33:40;8.30;99.90
40670;DHT22;26355;45.528;9.234;2023-03-01T01:36:07;10.20;99.90
40670;DHT22;26355;45.528;9.234;2023-03-01T01:38:34;8.30;99.90
40670;DHT22;26355;45.528;9.234;2023-03-01T01:40:59;8.30;99.90
40670;DHT22;26355;45.528;9.234;2023-03-01T01:43:33;8.20;99.90
40670;DHT22;26355;45.528;9.234;2023-03-01T01:48:48;9.50;99.90
40670;DHT22;26355;45.528;9.234;2023-03-01T01:51:20;8.20;99.90
40670;DHT22;26355;45.528;9.234;2023-03-01T01:53:49;8.30;99.90
40670;DHT22;26355;45.528;9.234;2023-03-01T01:56:17;8.30;99.90
40670;DHT22;26355;45.528;9.234;2023-03-01T01:58:43;8.40;99.90
40670;DHT22;26355;45.528;9.234;2023-03-01T02:01:10;7.80;99.90
40670;DHT22;26355;45.528;9.234;2023-03-01T02:03:38;8.40;99.90
40670;DHT22;26355;45.528;9.234;2023-03-01T02:06:13;8.80;99.90
40670;DHT22;26355;45.528;9.234;2023-03-01T02:08:41;8.20;99.90
40670;DHT22;26355;45.528;9.234;2023-03-01T02:11:08;9.10;99.90
40670;DHT22;26355;45.528;9.234;2023-03-01T02:13:34;8.30;99.90
40670;DHT22;26355;45.528;9.234;2023-03-01T02:16:09;8.50;99.90
40670;DHT22;26355;45.528;9.234;2023-03-01T02:18:38;8.50;99.90
40670;DHT22;26355;45.528;9.234;2023-03-01T02:21:12;8.60;99.90
40670;DHT22;26355;45.528;9.234;2023-03-01T02:23:40;8.40;99.90
40670;DHT22;26355;45.528;9.234;2023-03-01T02:26:11;10.00;99.90
40670;DHT22;26355;45.528;9.234;2023-03-01T02:28:41;8.50;99.90
40670;DHT22;26355;45.528;9.234;2023-03-01T02:31:09;8.50;99.90
40670;DHT22;26355;45.528;9.234;2023-03-01T02:33:55;8.80;99.90
40670;DHT22;26355;45.528;9.234;2023-03-01T02:36:26;9.60;99.90
40670;DHT22;26355;45.528;9.234;2023-03-01T02:38:56;8.50;99.90
40670;DHT22;26355;45.528;9.234;2023-03-01T02:41:25;8.60;99.90
40670;DHT22;26355;45.528;9.234;2023-03-01T02:43:51;8.50;99.90
40670;DHT22;26355;45.528;9.234;2023-03-01T02:46:23;8.70;99.90
40670;DHT22;26355;45.528;9.234;2023-03-01T02:48:54;8.80;99.90
40670;DHT22;26355;45.528;9.234;2023-03-01T02:56:14;8.60;99.90
40670;DHT22;26355;45.528;9.234;2023-03-01T02:58:42;8.60;99.90
40670;DHT22;26355;45.528;9.234;2023-03-01T03:01:11;8.60;99.90
40670;DHT22;26355;45.528;9.234;2023-03-01T03:03:36;10.50;99.90
40670;DHT22;26355;45.528;9.234;2023-03-01T03:06:02;8.20;99.90
40670;DHT22;26355;45.528;9.234;2023-03-01T03:08:28;8.40;99.90
40670;DHT22;26355;45.528;9.234;2023-03-01T03:10:53;8.70;99.90
40670;DHT22;26355;45.528;9.234;2023-03-01T03:13:19;9.30;99.90
40670;DHT22;26355;45.528;9.234;2023-03-01T03:15:44;8.40;99.90
40670;DHT22;26355;45.528;9.234;2023-03-01T03:18:13;8.90;99.90
40670;DHT22;26355;45.528;9.234;2023-03-01T03:20:41;8.40;99.90
40670;DHT22;26355;45.528;9.234;2023-03-01T03:23:07;8.10;99.90
40670;DHT22;26355;45.528;9.234;2023-03-01T03:25:33;8.20;99.90
40670;DHT22;26355;45.528;9.234;2023-03-01T03:28:03;8.30;99.90
40670;DHT22;26355;45.528;9.234;2023-03-01T03:30:36;8.10;99.90
40670;DHT22;26355;45.528;9.234;2023-03-01T03:33:04;8.60;99.90
40670;DHT22;26355;45.528;9.234;2023-03-01T03:35:33;8.10;99.90
40670;DHT22;26355;45.528;9.234;2023-03-01T03:38:00;8.10;99.90
40670;DHT22;26355;45.528;9.234;2023-03-01T03:40:40;9.00;99.90
40670;DHT22;26355;45.528;9.234;2023-03-01T03:43:11;8.00;99.90
40670;DHT22;26355;45.528;9.234;2023-03-01T03:45:37;8.90;99.90
40670;DHT22;26355;45.528;9.234;2023-03-01T03:48:05;8.10;99.90
40670;DHT22;26355;45.528;9.234;2023-03-01T03:50:31;7.90;99.90
40670;DHT22;26355;45.528;9.234;2023-03-01T03:52:57;8.00;99.90
40670;DHT22;26355;45.528;9.234;2023-03-01T03:55:23;8.10;99.90
40670;DHT22;26355;45.528;9.234;2023-03-01T03:57:53;9.10;99.90
40670;DHT22;26355;45.528;9.234;2023-03-01T04:00:21;7.90;99.90
40670;DHT22;26355;45.528;9.234;2023-03-01T04:02:50;7.90;99.90
40670;DHT22;26355;45.528;9.234;2023-03-01T04:05:17;9.00;99.90
40670;DHT22;26355;45.528;9.234;2023-03-01T04:07:44;9.50;99.90
40670;DHT22;26355;45.528;9.234;2023-03-01T04:10:14;8.80;99.90
40670;DHT22;26355;45.528;9.234;2023-03-01T04:12:40;7.80;99.90
40670;DHT22;26355;45.528;9.234;2023-03-01T04:15:08;7.80;99.90
40670;DHT22;26355;45.528;9.234;2023-03-01T04:17:44;7.70;99.90
40670;DHT22;26355;45.528;9.234;2023-03-01T04:20:12;7.60;99.90
40670;DHT22;26355;45.528;9.234;2023-03-01T04:22:39;8.30;99.90
40670;DHT22;26355;45.528;9.234;2023-03-01T04:25:05;9.30;99.90
40670;DHT22;26355;45.528;9.234;2023-03-01T04:27:35;7.80;99.90
40670;DHT22;26355;45.528;9.234;2023-03-01T04:30:02;7.80;99.90
40670;DHT22;26355;45.528;9.234;2023-03-01T04:32:28;10.40;99.90
40670;DHT22;26355;45.528;9.234;2023-03-01T04:34:53;7.60;99.90
40670;DHT22;26355;45.528;9.234;2023-03-01T04:37:22;7.80;99.90
40670;DHT22;26355;45.528;9.234;2023-03-01T04:39:49;7.70;99.90
40670;DHT22;26355;45.528;9.234;2023-03-01T04:42:15;7.50;99.90
40670;DHT22;26355;45.528;9.234;2023-03-01T04:44:42;10.20;99.90
40670;DHT22;26355;45.528;9.234;2023-03-01T04:47:08;7.60;99.90
40670;DHT22;26355;45.528;9.234;2023-03-01T04:49:33;7.70;99.90
40670;DHT22;26355;45.528;9.234;2023-03-01T04:51:59;7.50;99.90
40670;DHT22;26355;45.528;9.234;2023-03-01T04:54:30;6.70;99.90
40670;DHT22;26355;45.528;9.234;2023-03-01T04:56:56;7.40;99.90
40670;DHT22;26355;45.528;9.234;2023-03-01T04:59:22;7.50;99.90
40670;DHT22;26355;45.528;9.234;2023-03-01T05:01:48;9.30;99.90
40670;DHT22;26355;45.528;9.234;2023-03-01T05:04:14;7.00;99.90
40670;DHT22;26355;45.528;9.234;2023-03-01T05:06:40;7.40;99.90
40670;DHT22;26355;45.528;9.234;2023-03-01T05:09:05;7.80;99.90
40670;DHT22;26355;45.528;9.234;2023-03-01T05:11:31;7.70;99.90
40670;DHT22;26355;45.528;9.234;2023-03-01T05:14:04;7.40;99.90
40670;DHT22;26355;45.528;9.234;2023-03-01T05:16:31;7.30;99.90
40670;DHT22;26355;45.528;9.234;2023-03-01T05:18:57;7.20;99.90
40670;DHT22;26355;45.528;9.234;2023-03-01T05:21:23;9.90;99.90
40670;DHT22;26355;45.528;9.234;2023-03-01T05:23:49;7.20;99.90
40670;DHT22;26355;45.528;9.234;2023-03-01T05:26:16;6.90;99.90
40670;DHT22;26355;45.528;9.234;2023-03-01T05:28:42;7.40;99.90
40670;DHT22;26355;45.528;9.234;2023-03-01T05:31:09;7.40;99.90
40670;DHT22;26355;45.528;9.234;2023-03-01T05:33:38;7.60;99.90
40670;DHT22;26355;45.528;9.234;2023-03-01T05:36:05;7.80;99.90
40670;DHT22;26355;45.528;9.234;2023-03-01T05:38:31;7.80;99.90
40670;DHT22;26355;45.528;9.234;2023-03-01T05:40:57;7.50;99.90
40670;DHT22;26355;45.528;9.234;2023-03-01T05:43:22;6.90;99.90
40670;DHT22;26355;45.528;9.234;2023-03-01T05:45:48;7.80;99.90
40670;DHT22;26355;45.528;9.234;2023-03-01T05:48:14;8.40;99.90
40670;DHT22;26355;45.528;9.234;2023-03-01T05:50:44;7.90;99.90
40670;DHT22;26355;45.528;9.234;2023-03-01T05:53:17;6.70;99.90
40670;DHT22;26355;45.528;9.234;2023-03-01T05:55:43;7.50;99.90
40670;DHT22;26355;45.528;9.234;2023-03-01T05:58:12;8.90;99.90
40670;DHT22;26355;45.528;9.234;2023-03-01T06:00:39;8.00;99.90
40670;DHT22;26355;45.528;9.234;2023-03-01T06:03:05;7.90;99.90
40670;DHT22;26355;45.528;9.234;2023-03-01T06:05:31;7.20;99.90
40670;DHT22;26355;45.528;9.234;2023-03-01T06:07:59;8.00;99.90
40670;DHT22;26355;45.528;9.234;2023-03-01T06:10:25;7.70;99.90
40670;DHT22;26355;45.528;9.234;2023-03-01T06:12:50;8.00;99.90
40670;DHT22;26355;45.528;9.234;2023-03-01T06:15:16;8.00;99.90
40670;DHT22;26355;45.528;9.234;2023-03-01T06:17:44;8.00;99.90
40670;DHT22;26355;45.528;9.234;2023-03-01T06:20:18;7.20;99.90
40670;DHT22;26355;45.528;9.234;2023-03-01T06:22:45;8.20;99.90
40670;DHT22;26355;45.528;9.234;2023-03-01T06:25:13;8.10;99.90
40670;DHT22;26355;45.528;9.234;2023-03-01T06:30:05;8.00;99.90
40670;DHT22;26355;45.528;9.234;2023-03-01T06:32:32;8.00;99.90
40670;DHT22;26355;45.528;9.234;2023-03-01T06:34:57;9.20;99.90
40670;DHT22;26355;45.528;9.234;2023-03-01T06:37:24;9.30;99.90
40670;DHT22;26355;45.528;9.234;2023-03-01T06:39:50;7.10;99.90
40670;DHT22;26355;45.528;9.234;2023-03-01T06:42:15;8.60;99.90
40670;DHT22;26355;45.528;9.234;2023-03-01T06:44:41;7.50;99.90
40670;DHT22;26355;45.528;9.234;2023-03-01T06:47:07;9.10;99.90
40670;DHT22;26355;45.528;9.234;2023-03-01T06:49:33;8.60;99.90
40670;DHT22;26355;45.528;9.234;2023-03-01T06:51:58;8.80;99.90
40670;DHT22;26355;45.528;9.234;2023-03-01T06:54:24;8.50;99.90
40670;DHT22;26355;45.528;9.234;2023-03-01T06:56:50;8.70;99.90
40670;DHT22;26355;45.528;9.234;2023-03-01T06:59:16;8.80;99.90
40670;DHT22;26355;45.528;9.234;2023-03-01T07:01:42;10.00;99.90
40670;DHT22;26355;45.528;9.234;2023-03-01T07:04:07;9.50;99.90
40670;DHT22;26355;45.528;9.234;2023-03-01T07:06:33;10.20;99.90
40670;DHT22;26355;45.528;9.234;2023-03-01T07:08:58;9.20;99.90
40670;DHT22;26355;45.528;9.234;2023-03-01T07:11:24;9.50;99.90
40670;DHT22;26355;45.528;9.234;2023-03-01T07:13:50;9.40;99.90
40670;DHT22;26355;45.528;9.234;2023-03-01T07:16:15;10.10;99.90
40670;DHT22;26355;45.528;9.234;2023-03-01T07:18:41;11.00;99.90
40670;DHT22;26355;45.528;9.234;2023-03-01T07:21:08;10.00;99.90
40670;DHT22;26355;45.528;9.234;2023-03-01T07:23:34;11.20;99.90
40670;DHT22;26355;45.528;9.234;2023-03-01T07:26:00;10.40;99.90
40670;DHT22;26355;45.528;9.234;2023-03-01T07:28:26;10.30;99.90
40670;DHT22;26355;45.528;9.234;2023-03-01T07:30:52;11.70;99.90
40670;DHT22;26355;45.528;9.234;2023-03-01T07:33:18;10.70;99.90
40670;DHT22;26355;45.528;9.234;2023-03-01T07:35:44;11.00;99.90
40670;DHT22;26355;45.528;9.234;2023-03-01T07:38:09;10.40;99.90
40670;DHT22;26355;45.528;9.234;2023-03-01T07:40:35;10.50;99.90
40670;DHT22;26355;45.528;9.234;2023-03-01T07:43:01;10.20;99.90
40670;DHT22;26355;45.528;9.234;2023-03-01T07:45:27;11.30;99.90
40670;DHT22;26355;45.528;9.234;2023-03-01T07:47:54;10.30;99.90
40670;DHT22;26355;45.528;9.234;2023-03-01T07:50:20;10.10;99.90
40670;DHT22;26355;45.528;9.234;2023-03-01T07:52:47;9.90;99.90
40670;DHT22;26355;45.528;9.234;2023-03-01T07:55:13;10.00;99.90
40670;DHT22;26355;45.528;9.234;2023-03-01T07:57:39;8.90;99.90
40670;DHT22;26355;45.528;9.234;2023-03-01T08:00:05;9.70;99.90
40670;DHT22;26355;45.528;9.234;2023-03-01T08:02:31;9.80;99.90
40670;DHT22;26355;45.528;9.234;2023-03-01T08:04:57;8.90;99.90
40670;DHT22;26355;45.528;9.234;2023-03-01T08:07:23;9.70;99.90
40670;DHT22;26355;45.528;9.234;2023-03-01T08:09:48;10.20;99.90
40670;DHT22;26355;45.528;9.234;2023-03-01T08:12:14;9.70;99.90
40670;DHT22;26355;45.528;9.234;2023-03-01T08:14:41;10.00;99.90
40670;DHT22;26355;45.528;9.234;2023-03-01T08:17:07;11.60;99.90
40670;DHT22;26355;45.528;9.234;2023-03-01T08:19:32;10.10;99.90
40670;DHT22;26355;45.528;9.234;2023-03-01T08:22:03;10.10;99.90
40670;DHT22;26355;45.528;9.234;2023-03-01T08:24:28;10.00;99.90
40670;DHT22;26355;45.528;9.234;2023-03-01T08:26:54;10.20;99.90
40670;DHT22;26355;45.528;9.234;2023-03-01T08:29:20;10.30;99.90
40670;DHT22;26355;45.528;9.234;2023-03-01T08:31:47;10.30;99.90
40670;DHT22;26355;45.528;9.234;2023-03-01T08:34:15;10.40;99.90
40670;DHT22;26355;45.528;9.234;2023-03-01T08:36:43;10.90;99.90
40670;DHT22;26355;45.528;9.234;2023-03-01T08:39:10;10.40;99.90
40670;DHT22;26355;45.528;9.234;2023-03-01T08:41:36;11.00;99.90
40670;DHT22;26355;45.528;9.234;2023-03-01T08:44:02;10.80;99.90
40670;DHT22;26355;45.528;9.234;2023-03-01T08:46:29;10.40;99.90
40670;DHT22;26355;45.528;9.234;2023-03-01T08:48:55;11.30;99.90
40670;DHT22;26355;45.528;9.234;2023-03-01T08:51:22;11.50;99.90
40670;DHT22;26355;45.528;9.234;2023-03-01T08:53:48;10.40;99.90
40670;DHT22;26355;45.528;9.234;2023-03-01T08:56:15;10.30;99.90
40670;DHT22;26355;45.528;9.234;2023-03-01T08:58:47;10.50;99.90
40670;DHT22;26355;45.528;9.234;2023-03-01T09:01:16;10.20;99.90
40670;DHT22;26355;45.528;9.234;2023-03-01T09:03:42;11.30;99.90
40670;DHT22;26355;45.528;9.234;2023-03-01T09:06:08;10.30;99.90
40670;DHT22;26355;45.528;9.234;2023-03-01T09:08:35;10.40;99.90
40670;DHT22;26355;45.528;9.234;2023-03-01T09:11:02;11.30;99.90
40670;DHT22;26355;45.528;9.234;2023-03-01T09:13:28;10.90;99.90
40670;DHT22;26355;45.528;9.234;2023-03-01T09:16:03;10.30;99.90
40670;DHT22;26355;45.528;9.234;2023-03-01T09:18:29;10.30;99.90
40670;DHT22;26355;45.528;9.234;2023-03-01T09:21:04;10.50;99.90
40670;DHT22;26355;45.528;9.234;2023-03-01T09:23:34;10.60;99.90
40670;DHT22;26355;45.528;9.234;2023-03-01T09:26:02;10.60;99.70
40670;DHT22;26355;45.528;9.234;2023-03-01T09:28:28;11.80;99.90
40670;DHT22;26355;45.528;9.234;2023-03-01T09:30:53;10.10;99.90
40670;DHT22;26355;45.528;9.234;2023-03-01T09:33:19;10.60;99.90
40670;DHT22;26355;45.528;9.234;2023-03-01T09:35:44;10.90;99.90
40670;DHT22;26355;45.528;9.234;2023-03-01T09:38:13;10.40;99.90
40670;DHT22;26355;45.528;9.234;2023-03-01T09:40:43;12.70;99.90
40670;DHT22;26355;45.528;9.234;2023-03-01T09:46:05;11.20;99.90
40670;DHT22;26355;45.528;9.234;2023-03-01T09:48:38;10.50;99.90
40670;DHT22;26355;45.528;9.234;2023-03-01T09:51:14;10.50;99.90
40670;DHT22;26355;45.528;9.234;2023-03-01T09:53:42;10.20;99.90
40670;DHT22;26355;45.528;9.234;2023-03-01T10:02:05;12.50;99.90
40670;DHT22;26355;45.528;9.234;2023-03-01T10:04:45;11.10;99.90
40670;DHT22;26355;45.528;9.234;2023-03-01T10:10:08;11.30;99.90
40670;DHT22;26355;45.528;9.234;2023-03-01T10:12:40;11.30;99.90
40670;DHT22;26355;45.528;9.234;2023-03-01T10:15:30;11.70;99.90
40670;DHT22;26355;45.528;9.234;2023-03-01T10:18:03;11.60;99.30
40670;DHT22;26355;45.528;9.234;2023-03-01T10:20:50;11.40;99.70
40670;DHT22;26355;45.528;9.234;2023-03-01T10:23:17;11.90;99.60
40670;DHT22;26355;45.528;9.234;2023-03-01T10:31:23;12.40;99.30
40670;DHT22;26355;45.528;9.234;2023-03-01T10:33:53;12.80;99.70
40670;DHT22;26355;45.528;9.234;2023-03-01T10:36:21;12.60;99.60
40670;DHT22;26355;45.528;9.234;2023-03-01T10:38:55;12.40;98.20
40670;DHT22;26355;45.528;9.234;2023-03-01T10:41:23;12.90;99.00
40670;DHT22;26355;45.528;9.234;2023-03-01T10:43:55;13.00;98.70
40670;DHT22;26355;45.528;9.234;2023-03-01T10:46:36;13.00;98.30
40670;DHT22;26355;45.528;9.234;2023-03-01T10:51:43;12.90;97.40
40670;DHT22;26355;45.528;9.234;2023-03-01T10:54:30;12.80;98.20
40670;DHT22;26355;45.528;9.234;2023-03-01T10:57:01;12.90;97.70
40670;DHT22;26355;45.528;9.234;2023-03-01T10:59:29;12.60;98.10
40670;DHT22;26355;45.528;9.234;2023-03-01T11:02:27;12.70;98.30
40670;DHT22;26355;45.528;9.234;2023-03-01T11:05:20;13.10;97.90
40670;DHT22;26355;45.528;9.234;2023-03-01T11:07:57;12.30;98.00
40670;DHT22;26355;45.528;9.234;2023-03-01T11:12:51;13.60;99.00
40670;DHT22;26355;45.528;9.234;2023-03-01T11:15:36;13.00;98.90
40670;DHT22;26355;45.528;9.234;2023-03-01T11:18:02;13.30;98.60
40670;DHT22;26355;45.528;9.234;2023-03-01T11:20:33;11.70;98.70
40670;DHT22;26355;45.528;9.234;2023-03-01T11:23:04;12.00;98.90
40670;DHT22;26355;45.528;9.234;2023-03-01T11:25:36;12.10;99.00
40670;DHT22;26355;45.528;9.234;2023-03-01T11:28:05;12.20;99.10
40670;DHT22;26355;45.528;9.234;2023-03-01T11:30:39;13.90;99.30
40670;DHT22;26355;45.528;9.234;2023-03-01T11:33:47;12.80;99.00
40670;DHT22;26355;45.528;9.234;2023-03-01T11:38:48;12.10;99.10
40670;DHT22;26355;45.528;9.234;2023-03-01T11:41:20;12.60;99.30
40670;DHT22;26355;45.528;9.234;2023-03-01T11:46:46;11.90;99.20
40670;DHT22;26355;45.528;9.234;2023-03-01T11:52:29;12.00;99.40
40670;DHT22;26355;45.528;9.234;2023-03-01T12:25:52;12.40;98.10
40670;DHT22;26355;45.528;9.234;2023-03-01T12:28:26;12.60;98.50
40670;DHT22;26355;45.528;9.234;2023-03-01T12:33:51;12.50;98.20
40670;DHT22;26355;45.528;9.234;2023-03-01T12:36:44;12.70;97.90
40670;DHT22;26355;45.528;9.234;2023-03-01T12:42:22;12.90;98.10
40670;DHT22;26355;45.528;9.234;2023-03-01T12:50:43;13.10;97.90
40670;DHT22;26355;45.528;9.234;2023-03-01T12:55:46;13.80;97.90
40670;DHT22;26355;45.528;9.234;2023-03-01T13:09:27;12.60;97.60
40670;DHT22;26355;45.528;9.234;2023-03-01T13:11:57;12.20;97.70
40670;DHT22;26355;45.528;9.234;2023-03-01T13:16:49;12.10;98.10
40670;DHT22;26355;45.528;9.234;2023-03-01T13:19:18;12.20;98.10
40670;DHT22;26355;45.528;9.234;2023-03-01T13:21:45;12.10;98.10
40670;DHT22;26355;45.528;9.234;2023-03-01T13:29:58;11.70;98.20
40670;DHT22;26355;45.528;9.234;2023-03-01T13:32:35;11.70;98.30
40670;DHT22;26355;45.528;9.234;2023-03-01T13:37:43;11.70;98.40
40670;DHT22;26355;45.528;9.234;2023-03-01T13:42:48;10.10;98.30
40670;DHT22;26355;45.528;9.234;2023-03-01T13:45:21;11.80;98.70
40670;DHT22;26355;45.528;9.234;2023-03-01T13:47:52;11.70;98.60
40670;DHT22;26355;45.528;9.234;2023-03-01T13:50:23;11.50;98.70
40670;DHT22;26355;45.528;9.234;2023-03-01T13:53:01;12.10;98.90
40670;DHT22;26355;45.528;9.234;2023-03-01T13:55:48;11.60;98.70
40670;DHT22;26355;45.528;9.234;2023-03-01T13:58:27;11.70;98.70
40670;DHT22;26355;45.528;9.234;2023-03-01T14:01:03;11.60;98.50
40670;DHT22;26355;45.528;9.234;2023-03-01T14:03:31;11.60;98.60
40670;DHT22;26355;45.528;9.234;2023-03-01T14:06:04;11.50;98.80
40670;DHT22;26355;45.528;9.234;2023-03-01T14:08:35;11.60;99.00
40670;DHT22;26355;45.528;9.234;2023-03-01T14:13:51;11.60;99.00
40670;DHT22;26355;45.528;9.234;2023-03-01T14:19:18;11.30;99.30
40670;DHT22;26355;45.528;9.234;2023-03-01T14:21:46;11.30;99.50
40670;DHT22;26355;45.528;9.234;2023-03-01T14:24:20;11.40;99.50
40670;DHT22;26355;45.528;9.234;2023-03-01T14:26:47;12.30;99.60
40670;DHT22;26355;45.528;9.234;2023-03-01T14:29:28;11.40;99.50
40670;DHT22;26355;45.528;9.234;2023-03-01T14:32:18;11.50;99.60
40670;DHT22;26355;45.528;9.234;2023-03-01T14:34:47;11.50;99.70
40670;DHT22;26355;45.528;9.234;2023-03-01T14:37:28;11.50;99.80
40670;DHT22;26355;45.528;9.234;2023-03-01T14:39:54;11.30;99.70
40670;DHT22;26355;45.528;9.234;2023-03-01T14:42:22;11.60;99.90
40670;DHT22;26355;45.528;9.234;2023-03-01T14:44:51;11.50;99.90
40670;DHT22;26355;45.528;9.234;2023-03-01T14:47:33;11.60;99.80
40670;DHT22;26355;45.528;9.234;2023-03-01T14:50:44;11.70;99.80
40670;DHT22;26355;45.528;9.234;2023-03-01T14:52:53;11.80;99.90
40670;DHT22;26355;45.528;9.234;2023-03-01T14:55:23;11.60;99.90
40670;DHT22;26355;45.528;9.234;2023-03-01T14:57:51;11.30;99.90
40670;DHT22;26355;45.528;9.234;2023-03-01T15:00:26;14.00;99.90
40670;DHT22;26355;45.528;9.234;2023-03-01T15:02:55;11.20;99.90
40670;DHT22;26355;45.528;9.234;2023-03-01T15:05:32;11.20;99.90
40670;DHT22;26355;45.528;9.234;2023-03-01T15:08:00;11.30;99.90
40670;DHT22;26355;45.528;9.234;2023-03-01T15:10:29;11.70;99.90
40670;DHT22;26355;45.528;9.234;2023-03-01T15:12:55;11.50;99.90
40670;DHT22;26355;45.528;9.234;2023-03-01T15:15:35;11.70;99.90
40670;DHT22;26355;45.528;9.234;2023-03-01T15:18:18;11.60;99.90
40670;DHT22;26355;45.528;9.234;2023-03-01T15:20:45;11.70;99.50
40670;DHT22;26355;45.528;9.234;2023-03-01T15:23:37;11.50;99.70
40670;DHT22;26355;45.528;9.234;2023-03-01T15:26:03;11.80;99.80
40670;DHT22;26355;45.528;9.234;2023-03-01T15:28:31;12.60;99.90
40670;DHT22;26355;45.528;9.234;2023-03-01T15:33:35;11.40;99.90
40670;DHT22;26355;45.528;9.234;2023-03-01T15:36:50;11.60;99.90
40670;DHT22;26355;45.528;9.234;2023-03-01T15:38:56;11.50;99.90
40670;DHT22;26355;45.528;9.234;2023-03-01T15:41:31;11.50;99.90
40670;DHT22;26355;45.528;9.234;2023-03-01T15:44:17;11.50;99.90
40670;DHT22;26355;45.528;9.234;2023-03-01T15:46:47;11.40;99.90
40670;DHT22;26355;45.528;9.234;2023-03-01T15:49:42;12.10;99.90
40670;DHT22;26355;45.528;9.234;2023-03-01T15:52:20;11.40;99.90
40670;DHT22;26355;45.528;9.234;2023-03-01T15:54:47;11.50;99.90
40670;DHT22;26355;45.528;9.234;2023-03-01T15:57:13;13.00;99.90
40670;DHT22;26355;45.528;9.234;2023-03-01T15:59:40;13.00;99.90
40670;DHT22;26355;45.528;9.234;2023-03-01T16:02:11;12.50;99.90
40670;DHT22;26355;45.528;9.234;2023-03-01T16:04:38;12.90;99.90
40670;DHT22;26355;45.528;9.234;2023-03-01T16:07:04;11.40;99.90
40670;DHT22;26355;45.528;9.234;2023-03-01T16:09:30;11.30;99.90
40670;DHT22;26355;45.528;9.234;2023-03-01T16:11:56;12.80;99.90
40670;DHT22;26355;45.528;9.234;2023-03-01T16:14:21;12.20;99.90
40670;DHT22;26355;45.528;9.234;2023-03-01T16:16:47;11.20;99.90
40670;DHT22;26355;45.528;9.234;2023-03-01T16:19:14;12.30;99.90
40670;DHT22;26355;45.528;9.234;2023-03-01T16:21:47;11.30;99.90
40670;DHT22;26355;45.528;9.234;2023-03-01T16:24:14;11.90;99.90
40670;DHT22;26355;45.528;9.234;2023-03-01T16:26:39;13.10;99.90
40670;DHT22;26355;45.528;9.234;2023-03-01T16:29:05;11.00;99.90
40670;DHT22;26355;45.528;9.234;2023-03-01T16:31:31;11.00;99.90
40670;DHT22;26355;45.528;9.234;2023-03-01T16:33:58;11.10;99.90
40670;DHT22;26355;45.528;9.234;2023-03-01T16:36:26;10.90;99.90
40670;DHT22;26355;45.528;9.234;2023-03-01T16:38:54;10.90;99.90
40670;DHT22;26355;45.528;9.234;2023-03-01T16:41:22;11.10;99.90
40670;DHT22;26355;45.528;9.234;2023-03-01T16:43:54;13.30;99.90
40670;DHT22;26355;45.528;9.234;2023-03-01T16:46:22;10.90;99.90
40670;DHT22;26355;45.528;9.234;2023-03-01T16:48:49;11.00;99.90
40670;DHT22;26355;45.528;9.234;2023-03-01T16:51:15;11.10;99.90
40670;DHT22;26355;45.528;9.234;2023-03-01T16:53:40;11.40;99.90
40670;DHT22;26355;45.528;9.234;2023-03-01T16:56:09;11.00;99.90
40670;DHT22;26355;45.528;9.234;2023-03-01T16:58:35;10.90;99.90
40670;DHT22;26355;45.528;9.234;2023-03-01T17:01:16;10.80;99.90
40670;DHT22;26355;45.528;9.234;2023-03-01T17:03:43;10.70;99.90
40670;DHT22;26355;45.528;9.234;2023-03-01T17:06:14;10.90;99.90
40670;DHT22;26355;45.528;9.234;2023-03-01T17:08:41;10.60;99.90
40670;DHT22;26355;45.528;9.234;2023-03-01T17:11:15;11.70;99.90
40670;DHT22;26355;45.528;9.234;2023-03-01T17:13:41;11.80;99.90
40670;DHT22;26355;45.528;9.234;2023-03-01T17:16:09;10.60;99.90
40670;DHT22;26355;45.528;9.234;2023-03-01T17:18:36;10.70;99.90
40670;DHT22;26355;45.528;9.234;2023-03-01T17:21:02;11.70;99.90
40670;DHT22;26355;45.528;9.234;2023-03-01T17:23:29;10.60;99.90
40670;DHT22;26355;45.528;9.234;2023-03-01T17:25:55;10.10;99.90
40670;DHT22;26355;45.528;9.234;2023-03-01T17:28:27;9.40;99.90
40670;DHT22;26355;45.528;9.234;2023-03-01T17:30:53;10.90;99.90
40670;DHT22;26355;45.528;9.234;2023-03-01T17:33:19;11.50;99.90
40670;DHT22;26355;45.528;9.234;2023-03-01T17:35:45;10.90;99.90
40670;DHT22;26355;45.528;9.234;2023-03-01T17:38:13;9.90;99.90
40670;DHT22;26355;45.528;9.234;2023-03-01T17:40:40;8.90;99.90
40670;DHT22;26355;45.528;9.234;2023-03-01T17:43:07;10.90;99.90
40670;DHT22;26355;45.528;9.234;2023-03-01T17:45:34;9.20;99.90
40670;DHT22;26355;45.528;9.234;2023-03-01T17:48:00;9.40;99.90